createdAt,value
2022-10-08T00:02:05.935Z,19.67
2022-10-08T00:05:09.810Z,9.25
2022-10-08T00:08:13.856Z,15.00
2022-10-08T00:11:22.285Z,13.45
2022-10-08T00:14:26.512Z,10.93
2022-10-08T00:17:31.002Z,11.45
2022-10-08T00:20:35.572Z,18.00
2022-10-08T00:23:39.370Z,15.35
2022-10-08T00:26:44.562Z,13.25
2022-10-08T00:29:48.494Z,11.13
2022-10-08T00:32:55.355Z,17.83
2022-10-08T00:36:07.497Z,14.25
2022-10-08T00:39:14.360Z,17.02
2022-10-08T00:42:18.588Z,13.80
2022-10-08T00:45:22.937Z,12.80
2022-10-08T00:48:27.010Z,13.55
2022-10-08T00:51:33.467Z,15.38
2022-10-08T00:54:37.444Z,17.55
2022-10-08T00:57:43.611Z,15.25
2022-10-08T01:00:48.774Z,12.45
2022-10-08T01:03:52.603Z,12.70
2022-10-08T01:07:23.546Z,16.38
2022-10-08T01:10:39.045Z,13.68
2022-10-08T01:13:58.396Z,16.13
2022-10-08T01:17:30.359Z,14.35
2022-10-08T01:20:52.487Z,12.43
2022-10-08T01:24:06.548Z,13.98
2022-10-08T01:27:45.593Z,14.60
2022-10-08T01:31:01.632Z,16.13
2022-10-08T01:34:37.014Z,16.08
2022-10-08T01:37:43.204Z,16.83
2022-10-08T01:40:52.142Z,11.52
2022-10-08T01:44:07.347Z,15.10
2022-10-08T01:47:16.065Z,11.68
2022-10-08T01:50:30.071Z,14.38
2022-10-08T01:53:39.483Z,12.27
2022-10-08T01:56:46.440Z,14.75
2022-10-08T02:00:12.465Z,16.58
2022-10-08T02:03:16.869Z,14.88
2022-10-08T02:06:21.061Z,11.40
2022-10-08T02:09:27.772Z,11.13
2022-10-08T02:12:31.979Z,11.02
2022-10-08T02:15:48.559Z,14.18
2022-10-08T02:19:02.038Z,14.82
2022-10-08T02:22:07.104Z,11.75
2022-10-08T02:25:26.058Z,11.18
2022-10-08T02:28:47.746Z,12.70
2022-10-08T02:32:18.720Z,11.82
2022-10-08T02:35:29.970Z,16.23
2022-10-08T02:38:39.585Z,13.23
2022-10-08T02:41:50.545Z,12.45
2022-10-08T02:45:00.347Z,12.00
2022-10-08T02:48:14.844Z,16.65
2022-10-08T02:51:19.293Z,12.50
2022-10-08T02:54:24.280Z,13.50
2022-10-08T02:57:57.695Z,13.57
2022-10-08T03:01:17.365Z,13.85
2022-10-08T03:04:56.536Z,12.00
2022-10-08T03:08:00.705Z,15.90
2022-10-08T03:11:06.107Z,19.67
2022-10-08T03:14:14.159Z,15.38
2022-10-08T03:17:35.821Z,12.63
2022-10-08T03:20:44.839Z,13.60
2022-10-08T03:23:48.505Z,18.70
2022-10-08T03:26:53.268Z,11.73
2022-10-08T03:29:57.417Z,16.27
2022-10-08T03:33:02.963Z,10.63
2022-10-08T03:36:07.080Z,13.73
2022-10-08T03:39:11.573Z,20.38
2022-10-08T03:42:15.461Z,12.68
2022-10-08T03:45:19.429Z,12.38
2022-10-08T03:48:23.610Z,16.10
2022-10-08T03:51:27.572Z,15.93
2022-10-08T03:54:33.548Z,16.40
2022-10-08T03:57:37.454Z,14.95
2022-10-08T04:00:41.565Z,15.48
2022-10-08T04:03:45.744Z,11.05
2022-10-08T04:06:49.709Z,14.43
2022-10-08T04:09:53.692Z,14.57
2022-10-08T04:12:57.757Z,13.90
2022-10-08T04:16:10.553Z,14.38
2022-10-08T04:19:14.780Z,12.30
2022-10-08T04:22:19.044Z,13.65
2022-10-08T04:25:22.713Z,11.77
2022-10-08T04:28:26.820Z,14.15
2022-10-08T04:31:31.116Z,10.65
2022-10-08T04:34:34.868Z,11.38
2022-10-08T04:37:38.843Z,13.32
2022-10-08T04:40:43.004Z,14.13
2022-10-08T04:43:47.095Z,13.25
2022-10-08T04:46:50.862Z,13.38
2022-10-08T04:49:54.838Z,14.00
2022-10-08T04:52:58.701Z,14.05
2022-10-08T04:56:30.264Z,14.65
2022-10-08T04:59:34.423Z,11.23
2022-10-08T05:02:38.350Z,13.20
2022-10-08T05:05:43.848Z,17.92
2022-10-08T05:08:48.698Z,12.50
2022-10-08T05:11:52.725Z,15.43
2022-10-08T05:14:56.708Z,15.18
2022-10-08T05:18:00.672Z,15.35
2022-10-08T05:21:11.101Z,13.10
2022-10-08T05:24:14.991Z,16.92
2022-10-08T05:27:18.787Z,17.15
2022-10-08T05:30:22.722Z,11.68
2022-10-08T05:33:26.616Z,15.27
2022-10-08T05:36:32.085Z,15.00
2022-10-08T05:39:36.193Z,14.93
2022-10-08T05:42:39.881Z,19.88
2022-10-08T05:45:50.162Z,10.85
2022-10-08T05:48:55.269Z,15.52
2022-10-08T05:51:59.047Z,16.42
2022-10-08T05:55:03.144Z,13.63
2022-10-08T05:58:07.185Z,13.02
2022-10-08T06:01:23.091Z,16.17
2022-10-08T06:04:26.939Z,13.18
2022-10-08T06:07:30.951Z,13.43
2022-10-08T06:10:34.938Z,17.33
2022-10-08T06:13:38.889Z,14.75
2022-10-08T06:16:43.534Z,11.77
2022-10-08T06:19:47.360Z,14.63
2022-10-08T06:22:51.254Z,12.82
2022-10-08T06:25:55.204Z,13.57
2022-10-08T06:28:59.578Z,12.50
2022-10-08T06:32:03.903Z,15.15
2022-10-08T06:35:08.114Z,16.75
2022-10-08T06:38:12.630Z,17.52
2022-10-08T06:41:16.382Z,10.63
2022-10-08T06:44:20.572Z,18.60
2022-10-08T06:47:24.520Z,13.23
2022-10-08T06:50:28.585Z,14.82
2022-10-08T06:53:33.159Z,16.83
2022-10-08T06:56:38.445Z,12.70
2022-10-08T06:59:42.398Z,16.17
2022-10-08T07:02:46.542Z,12.63
2022-10-08T07:05:50.959Z,15.32
2022-10-08T07:08:57.260Z,19.42
2022-10-08T07:12:01.019Z,18.25
2022-10-08T07:15:05.256Z,20.17
2022-10-08T07:18:11.714Z,12.50
2022-10-08T07:21:17.489Z,13.00
2022-10-08T07:24:21.887Z,13.98
2022-10-08T07:27:26.106Z,16.40
2022-10-08T07:30:32.838Z,10.60
2022-10-08T07:33:36.543Z,12.45
2022-10-08T07:36:40.873Z,12.25
2022-10-08T07:39:44.897Z,16.05
2022-10-08T07:42:49.320Z,18.33
2022-10-08T07:45:53.770Z,18.20
2022-10-08T07:49:04.599Z,15.55
2022-10-08T07:52:08.630Z,17.23
2022-10-08T07:55:12.630Z,17.52
2022-10-08T07:58:16.464Z,17.35
2022-10-08T08:01:23.023Z,13.95
2022-10-08T08:04:27.125Z,13.32
2022-10-08T08:07:30.934Z,15.75
2022-10-08T08:10:34.739Z,16.55
2022-10-08T08:13:39.864Z,14.15
2022-10-08T08:16:44.614Z,16.42
2022-10-08T08:19:48.497Z,12.50
2022-10-08T08:22:52.387Z,11.88
2022-10-08T08:25:56.165Z,13.88
2022-10-08T08:29:03.343Z,11.77
2022-10-08T08:32:07.458Z,16.15
2022-10-08T08:35:11.489Z,13.90
2022-10-08T08:38:15.212Z,13.73
2022-10-08T08:41:51.954Z,15.60
2022-10-08T08:45:00.033Z,12.50
2022-10-08T08:48:22.941Z,15.05
2022-10-08T08:51:26.948Z,13.15
2022-10-08T08:54:31.037Z,15.43
2022-10-08T08:57:41.493Z,14.40
2022-10-08T09:00:54.292Z,13.90
2022-10-08T09:04:06.158Z,12.40
2022-10-08T09:07:16.963Z,13.55
2022-10-08T09:10:35.079Z,11.32
2022-10-08T09:14:25.952Z,14.77
2022-10-08T09:17:32.507Z,13.13
2022-10-08T09:20:40.103Z,12.52
2022-10-08T09:23:45.632Z,14.65
2022-10-08T09:26:51.903Z,12.73
2022-10-08T09:29:56.090Z,11.90
2022-10-08T09:33:04.758Z,10.32
2022-10-08T09:36:09.456Z,12.48
2022-10-08T09:39:34.804Z,10.93
2022-10-08T09:42:39.476Z,8.20
2022-10-08T09:45:46.138Z,14.15
2022-10-08T09:48:50.436Z,10.25
2022-10-08T09:51:55.992Z,10.25
2022-10-08T09:55:09.899Z,12.95
2022-10-08T09:58:18.536Z,10.48
2022-10-08T10:01:25.067Z,11.98
2022-10-08T10:04:35.408Z,15.23
2022-10-08T10:07:44.920Z,13.00
2022-10-08T10:10:48.903Z,12.52
2022-10-08T10:13:55.990Z,11.48
2022-10-08T10:17:05.260Z,11.07
2022-10-08T10:20:12.013Z,11.57
2022-10-08T10:23:54.014Z,14.98
2022-10-08T10:27:06.715Z,15.57
2022-10-08T10:30:21.999Z,16.05
2022-10-08T10:33:32.071Z,13.82
2022-10-08T10:36:43.355Z,13.18
2022-10-08T10:40:08.344Z,12.30
2022-10-08T10:43:19.022Z,14.15
2022-10-08T10:46:32.510Z,15.80
2022-10-08T10:49:41.240Z,12.32
2022-10-08T10:52:59.535Z,12.93
2022-10-08T10:56:08.274Z,11.90
2022-10-08T10:59:19.807Z,12.35
2022-10-08T11:02:30.518Z,12.05
2022-10-08T11:05:36.812Z,12.15
2022-10-08T11:08:47.669Z,12.80
2022-10-08T11:11:57.924Z,9.63
2022-10-08T11:15:14.245Z,12.57
2022-10-08T11:18:26.189Z,11.65
2022-10-08T11:21:50.802Z,11.57
2022-10-08T11:25:15.588Z,12.10
2022-10-08T11:28:38.539Z,12.70
2022-10-08T11:31:46.417Z,14.77
2022-10-08T11:34:58.430Z,11.23
2022-10-08T11:38:14.726Z,12.23
2022-10-08T11:41:29.381Z,7.85
2022-10-08T11:44:33.901Z,8.30
2022-10-08T11:47:43.957Z,10.85
2022-10-08T11:50:48.420Z,11.38
2022-10-08T11:54:09.614Z,6.45
2022-10-08T11:57:55.847Z,7.55
2022-10-08T12:01:02.186Z,6.65
2022-10-08T12:04:27.448Z,9.55
2022-10-08T12:07:37.786Z,6.40
2022-10-08T12:10:41.869Z,7.60
2022-10-08T12:14:11.488Z,6.72
2022-10-08T12:17:16.508Z,5.45
2022-10-08T12:20:24.542Z,5.80
2022-10-08T12:23:34.242Z,4.90
2022-10-08T12:27:16.258Z,4.60
2022-10-08T12:30:20.160Z,5.82
2022-10-08T12:33:24.938Z,6.80
2022-10-08T12:36:36.437Z,6.22
2022-10-08T12:39:42.999Z,7.18
2022-10-08T12:42:55.379Z,5.78
2022-10-08T12:46:17.694Z,4.68
2022-10-08T12:49:28.276Z,5.10
2022-10-08T12:52:35.342Z,5.85
2022-10-08T12:55:48.489Z,7.63
2022-10-08T12:58:54.552Z,4.60
2022-10-08T13:01:58.923Z,5.10
2022-10-08T13:05:22.994Z,6.50
2022-10-08T13:08:32.922Z,7.97
2022-10-08T13:11:36.750Z,9.20
2022-10-08T13:14:41.129Z,6.25
2022-10-08T13:17:45.252Z,8.65
2022-10-08T13:21:04.099Z,5.50
2022-10-08T13:24:10.939Z,6.28
2022-10-08T13:27:32.436Z,6.30
2022-10-08T13:30:36.429Z,6.50
2022-10-08T13:33:40.767Z,7.35
2022-10-08T13:36:55.335Z,8.50
2022-10-08T13:40:18.305Z,9.93
2022-10-08T13:43:22.446Z,11.90
2022-10-08T13:46:26.750Z,6.75
2022-10-08T13:49:32.643Z,7.53
2022-10-08T13:52:42.048Z,8.07
2022-10-08T13:55:48.550Z,7.88
2022-10-08T13:58:52.598Z,12.13
2022-10-08T14:01:56.485Z,9.68
2022-10-08T14:05:00.374Z,9.48
2022-10-08T14:08:11.656Z,9.38
2022-10-08T14:11:17.769Z,10.50
2022-10-08T14:14:23.379Z,6.47
2022-10-08T14:17:27.259Z,8.88
2022-10-08T14:20:31.420Z,11.02
2022-10-08T14:23:36.366Z,7.03
2022-10-08T14:26:40.464Z,9.27
2022-10-08T14:29:44.147Z,9.15
2022-10-08T14:32:48.575Z,9.57
2022-10-08T14:35:53.675Z,7.15
2022-10-08T14:38:57.614Z,9.75
2022-10-08T14:42:01.487Z,9.35
2022-10-08T14:45:05.756Z,8.55
2022-10-08T14:48:10.622Z,12.80
2022-10-08T14:51:15.132Z,9.80
2022-10-08T14:54:19.502Z,13.57
2022-10-08T14:57:23.528Z,8.00
2022-10-08T15:00:27.424Z,8.52
2022-10-08T15:03:31.621Z,9.18
2022-10-08T15:06:36.181Z,8.68
2022-10-08T15:09:40.624Z,8.80
2022-10-08T15:12:45.699Z,11.25
2022-10-08T15:15:49.773Z,11.63
2022-10-08T15:18:53.565Z,9.50
2022-10-08T15:21:57.390Z,6.75
2022-10-08T15:25:01.600Z,8.00
2022-10-08T15:28:05.570Z,9.02
2022-10-08T15:31:15.439Z,8.48
2022-10-08T15:34:20.519Z,8.85
2022-10-08T15:37:24.486Z,12.25
2022-10-08T15:40:30.673Z,8.75
2022-10-08T15:43:34.811Z,11.27
2022-10-08T15:46:39.139Z,11.05
2022-10-08T15:49:45.596Z,10.45
2022-10-08T15:52:49.669Z,9.65
2022-10-08T15:55:55.487Z,11.88
2022-10-08T15:59:00.351Z,8.40
2022-10-08T16:02:05.461Z,6.05
2022-10-08T16:05:09.820Z,6.63
2022-10-08T16:08:16.075Z,7.90
2022-10-08T16:11:23.016Z,7.72
2022-10-08T16:14:27.524Z,7.78
2022-10-08T16:17:31.416Z,4.45
2022-10-08T16:20:35.149Z,5.22
2022-10-08T16:23:39.721Z,6.35
2022-10-08T16:26:44.067Z,6.55
2022-10-08T16:29:48.346Z,5.38
2022-10-08T16:32:53.829Z,3.90
2022-10-08T16:36:02.942Z,7.68
2022-10-08T16:39:08.054Z,5.95
2022-10-08T16:42:12.147Z,4.85
2022-10-08T16:45:16.507Z,5.55
2022-10-08T16:48:20.537Z,7.32
2022-10-08T16:51:26.662Z,3.63
2022-10-08T16:54:31.010Z,4.85
2022-10-08T16:57:37.830Z,3.33
2022-10-08T17:00:41.601Z,5.78
2022-10-08T17:03:55.687Z,3.83
2022-10-08T17:16:12.129Z,6.43
2022-10-08T17:19:16.156Z,6.38
2022-10-08T17:22:20.209Z,5.97
2022-10-08T17:25:28.789Z,5.57
2022-10-08T17:28:37.204Z,6.97
2022-10-08T17:31:41.836Z,5.97
2022-10-08T17:34:46.377Z,7.88
2022-10-08T17:37:50.121Z,8.02
2022-10-08T17:40:54.095Z,7.15
2022-10-08T17:44:01.305Z,6.13
2022-10-08T17:47:05.261Z,7.40
2022-10-08T17:50:09.111Z,10.13
2022-10-08T17:53:13.140Z,8.63
2022-10-08T17:56:18.977Z,8.45
2022-10-08T17:59:23.125Z,9.43
2022-10-08T18:02:27.462Z,10.35
2022-10-08T18:05:32.742Z,10.27
2022-10-08T18:08:37.403Z,8.07
2022-10-08T18:11:43.630Z,8.13
2022-10-08T18:14:48.829Z,6.88
2022-10-08T18:17:52.752Z,6.97
2022-10-08T18:20:58.519Z,7.75
2022-10-08T18:24:02.724Z,7.93
2022-10-08T18:27:06.902Z,7.85
2022-10-08T18:30:11.184Z,11.68
2022-10-08T18:33:15.516Z,7.72
2022-10-08T18:36:21.703Z,11.13
2022-10-08T18:39:28.449Z,8.07
2022-10-08T18:42:33.021Z,10.13
2022-10-08T18:45:36.925Z,12.32
2022-10-08T18:48:40.965Z,12.45
2022-10-08T18:51:45.480Z,10.73
2022-10-08T18:54:49.263Z,11.63
2022-10-08T18:57:54.241Z,9.68
2022-10-08T19:00:58.668Z,12.75
2022-10-08T19:04:08.130Z,9.50
2022-10-08T19:07:12.590Z,8.70
2022-10-08T19:10:16.984Z,9.63
2022-10-08T19:13:21.159Z,7.15
2022-10-08T19:16:25.400Z,9.55
2022-10-08T19:19:29.576Z,7.03
2022-10-08T19:22:33.663Z,7.68
2022-10-08T19:25:37.743Z,7.22
2022-10-08T19:28:46.127Z,9.50
2022-10-08T19:31:50.541Z,8.40
2022-10-08T19:34:54.557Z,12.57
2022-10-08T19:37:58.370Z,7.13
2022-10-08T19:41:06.754Z,13.60
2022-10-08T19:44:11.711Z,10.05
2022-10-08T19:47:15.760Z,8.95
2022-10-08T19:50:19.547Z,9.55
2022-10-08T19:53:23.533Z,11.63
2022-10-08T19:56:28.954Z,9.38
2022-10-08T19:59:33.271Z,8.90
2022-10-08T20:02:37.557Z,8.93
2022-10-08T20:05:41.789Z,8.45
2022-10-08T20:08:45.957Z,10.77
2022-10-08T20:11:50.130Z,8.50
2022-10-08T20:14:54.333Z,9.98
2022-10-08T20:17:58.202Z,6.78
2022-10-08T20:21:04.640Z,8.75
2022-10-08T20:24:09.435Z,7.15
2022-10-08T20:27:13.538Z,10.25
2022-10-08T20:30:17.761Z,13.32
2022-10-08T20:33:22.066Z,11.63
2022-10-08T20:36:32.055Z,9.75
2022-10-08T20:39:36.206Z,10.95
2022-10-08T20:42:39.878Z,12.75
2022-10-08T20:45:43.550Z,11.10
2022-10-08T20:48:47.948Z,11.20
2022-10-08T20:51:51.984Z,10.18
2022-10-08T20:54:55.917Z,13.57
2022-10-08T20:57:59.798Z,12.63
2022-10-08T21:01:08.377Z,12.77
2022-10-08T21:04:12.601Z,11.88
2022-10-08T21:07:16.611Z,12.82
2022-10-08T21:10:25.077Z,15.00
2022-10-08T21:13:30.240Z,18.35
2022-10-08T21:16:40.040Z,13.82
2022-10-08T21:19:44.418Z,11.93
2022-10-08T21:22:48.591Z,10.35
2022-10-08T21:25:53.118Z,12.20
2022-10-08T21:28:59.000Z,11.60
2022-10-08T21:32:03.551Z,14.30
2022-10-08T21:35:08.527Z,14.55
2022-10-08T21:38:12.434Z,15.23
2022-10-08T21:41:18.537Z,13.55
2022-10-08T21:44:22.883Z,12.48
2022-10-08T21:47:26.904Z,13.93
2022-10-08T21:50:35.244Z,13.43
2022-10-08T21:53:41.159Z,15.20
2022-10-08T21:56:45.586Z,13.98
2022-10-08T21:59:49.850Z,16.55
2022-10-08T22:02:53.651Z,17.33
2022-10-08T22:06:00.346Z,16.45
2022-10-08T22:09:09.365Z,12.85
2022-10-08T22:12:13.380Z,13.07
2022-10-08T22:15:17.429Z,14.77
2022-10-08T22:18:23.337Z,13.10
2022-10-08T22:21:27.999Z,17.17
2022-10-08T22:24:31.990Z,17.52
2022-10-08T22:27:36.313Z,12.40
2022-10-08T22:30:40.407Z,12.32
2022-10-08T22:33:45.097Z,12.52
2022-10-08T22:36:49.415Z,11.68
2022-10-08T22:39:53.709Z,14.32
2022-10-08T22:42:57.359Z,12.82
2022-10-08T22:46:07.577Z,15.07
2022-10-08T22:49:12.447Z,13.65
2022-10-08T22:52:16.151Z,12.98
2022-10-08T22:55:22.880Z,16.65
2022-10-08T22:58:26.772Z,12.80
2022-10-08T23:01:31.206Z,12.40
2022-10-08T23:04:35.155Z,17.77
2022-10-08T23:07:39.242Z,15.80
2022-10-08T23:10:43.008Z,14.52
2022-10-08T23:13:55.541Z,12.30
2022-10-08T23:16:59.409Z,14.18
2022-10-08T23:20:03.578Z,12.10
2022-10-08T23:23:07.439Z,14.55
2022-10-08T23:26:11.496Z,13.38
2022-10-08T23:29:15.715Z,12.48
2022-10-08T23:32:19.633Z,12.85
2022-10-08T23:35:23.827Z,15.20
2022-10-08T23:38:27.624Z,14.90
2022-10-08T23:41:31.553Z,13.05
2022-10-08T23:44:35.919Z,10.98
2022-10-08T23:47:40.465Z,14.02
2022-10-08T23:50:49.529Z,15.75
2022-10-08T23:53:53.981Z,11.05
2022-10-08T23:56:57.690Z,13.02
